createdAt,value
2022-11-09T00:00:52.839Z,1.50
2022-11-09T00:03:20.201Z,2.72
2022-11-09T00:05:57.633Z,1.70
2022-11-09T00:08:25.038Z,1.80
2022-11-09T00:10:51.839Z,1.95
2022-11-09T00:13:18.836Z,1.42
2022-11-09T00:15:45.812Z,2.35
2022-11-09T00:18:12.542Z,2.30
2022-11-09T00:20:44.493Z,1.67
2022-11-09T00:23:13.884Z,1.17
2022-11-09T00:25:40.648Z,1.20
2022-11-09T00:28:07.380Z,1.83
2022-11-09T00:30:34.382Z,1.60
2022-11-09T00:33:01.291Z,1.38
2022-11-09T00:35:28.047Z,2.17
2022-11-09T00:37:55.595Z,1.42
2022-11-09T00:40:22.398Z,1.98
2022-11-09T00:42:49.184Z,2.00
2022-11-09T00:45:16.585Z,1.30
2022-11-09T00:47:44.715Z,1.70
2022-11-09T00:50:11.860Z,1.40
2022-11-09T00:52:38.602Z,1.52
2022-11-09T00:55:05.727Z,1.38
2022-11-09T00:57:32.624Z,1.15
2022-11-09T01:00:00.075Z,1.88
2022-11-09T01:02:26.806Z,1.38
2022-11-09T01:04:53.693Z,1.48
2022-11-09T01:07:20.417Z,1.25
2022-11-09T01:09:47.571Z,1.60
2022-11-09T01:12:15.184Z,0.68
2022-11-09T01:14:42.712Z,1.60
2022-11-09T01:17:09.532Z,1.20
2022-11-09T01:19:36.218Z,1.08
2022-11-09T01:22:02.910Z,1.00
2022-11-09T01:24:29.601Z,1.30
2022-11-09T01:26:56.295Z,1.23
2022-11-09T01:29:22.992Z,1.25
2022-11-09T01:31:49.696Z,1.25
2022-11-09T01:34:17.535Z,0.90
2022-11-09T01:36:44.515Z,1.10
2022-11-09T01:39:11.262Z,1.30
2022-11-09T01:41:38.286Z,1.67
2022-11-09T01:44:11.303Z,1.08
2022-11-09T01:47:04.554Z,1.40
2022-11-09T01:49:43.295Z,0.80
2022-11-09T01:52:15.926Z,1.25
2022-11-09T01:54:47.146Z,1.00
2022-11-09T01:57:20.400Z,1.15
2022-11-09T01:59:53.085Z,1.10
2022-11-09T02:02:20.248Z,1.50
2022-11-09T02:04:56.422Z,1.42
2022-11-09T02:07:24.270Z,1.05
2022-11-09T02:10:02.885Z,1.17
2022-11-09T02:12:33.747Z,1.30
2022-11-09T02:15:03.548Z,1.58
2022-11-09T02:17:32.487Z,0.95
2022-11-09T02:19:59.446Z,1.35
2022-11-09T02:22:27.693Z,1.10
2022-11-09T02:24:56.516Z,1.05
2022-11-09T02:27:24.559Z,1.25
2022-11-09T02:29:53.140Z,1.02
2022-11-09T02:32:25.879Z,0.90
2022-11-09T02:34:55.396Z,1.20
2022-11-09T02:37:47.850Z,1.20
2022-11-09T02:40:21.064Z,1.30
2022-11-09T02:42:48.581Z,0.93
2022-11-09T02:45:15.318Z,0.90
2022-11-09T02:47:43.088Z,0.80
2022-11-09T02:50:10.184Z,1.10
2022-11-09T02:52:37.137Z,1.25
2022-11-09T02:55:04.299Z,1.05
2022-11-09T02:57:31.009Z,0.98
2022-11-09T02:59:59.452Z,1.15
2022-11-09T03:02:26.258Z,1.08
2022-11-09T03:04:53.041Z,1.25
2022-11-09T03:07:20.782Z,1.10
2022-11-09T03:09:47.850Z,1.00
2022-11-09T03:12:29.637Z,0.90
2022-11-09T03:15:05.014Z,1.25
2022-11-09T03:17:32.428Z,1.20
2022-11-09T03:19:59.316Z,1.08
2022-11-09T03:22:27.467Z,0.77
2022-11-09T03:24:54.640Z,1.05
2022-11-09T03:27:21.787Z,0.80
2022-11-09T03:29:49.534Z,1.27
2022-11-09T03:32:16.753Z,1.00
2022-11-09T03:34:43.627Z,0.75
2022-11-09T03:37:12.881Z,1.10
2022-11-09T03:39:39.893Z,0.80
2022-11-09T03:42:06.697Z,0.82
2022-11-09T03:44:33.541Z,0.73
2022-11-09T03:47:00.560Z,0.82
2022-11-09T03:49:27.254Z,1.00
2022-11-09T03:51:53.923Z,0.73
2022-11-09T03:54:20.615Z,0.80
2022-11-09T03:56:47.363Z,0.88
2022-11-09T03:59:14.127Z,0.85
2022-11-09T04:01:40.930Z,1.08
2022-11-09T04:04:07.689Z,0.70
2022-11-09T04:06:34.513Z,1.08
2022-11-09T04:09:01.284Z,0.98
2022-11-09T04:11:28.009Z,0.93
2022-11-09T04:13:54.709Z,0.90
2022-11-09T04:16:21.591Z,0.85
2022-11-09T04:18:48.295Z,0.98
2022-11-09T04:21:16.469Z,0.88
2022-11-09T04:23:47.604Z,0.90
2022-11-09T04:26:14.306Z,0.65
2022-11-09T04:28:41.200Z,0.85
2022-11-09T04:31:07.952Z,0.80
2022-11-09T04:33:34.715Z,0.93
2022-11-09T04:36:03.341Z,0.80
2022-11-09T04:38:30.835Z,1.00
2022-11-09T04:41:01.536Z,1.00
2022-11-09T04:43:28.586Z,0.88
2022-11-09T04:45:55.720Z,0.70
2022-11-09T04:48:22.607Z,0.80
2022-11-09T04:50:49.488Z,0.85
2022-11-09T04:53:16.261Z,1.10
2022-11-09T04:55:43.224Z,1.05
2022-11-09T04:58:10.363Z,0.88
2022-11-09T05:00:37.381Z,0.93
2022-11-09T05:03:05.953Z,0.73
2022-11-09T05:05:34.194Z,0.90
2022-11-09T05:08:01.208Z,0.50
2022-11-09T05:10:28.236Z,0.93
2022-11-09T05:13:03.853Z,0.60
2022-11-09T05:15:30.787Z,0.80
2022-11-09T05:17:57.535Z,0.57
2022-11-09T05:20:25.148Z,0.73
2022-11-09T05:23:10.495Z,0.88
2022-11-09T05:25:37.254Z,0.68
2022-11-09T05:28:04.156Z,1.10
2022-11-09T05:30:31.089Z,0.90
2022-11-09T05:32:57.851Z,0.90
2022-11-09T05:35:25.120Z,0.88
2022-11-09T05:37:51.823Z,1.10
2022-11-09T05:40:19.991Z,1.02
2022-11-09T05:42:46.895Z,0.60
2022-11-09T05:48:04.344Z,1.00
2022-11-09T05:50:31.297Z,0.65
2022-11-09T05:53:12.364Z,0.60
2022-11-09T05:55:39.514Z,1.10
2022-11-09T05:58:06.755Z,1.25
2022-11-09T06:00:34.091Z,0.60
2022-11-09T06:03:06.142Z,0.88
2022-11-09T06:05:34.607Z,0.77
2022-11-09T06:08:06.885Z,0.77
2022-11-09T06:10:34.283Z,0.98
2022-11-09T06:13:01.747Z,1.02
2022-11-09T06:15:28.484Z,0.80
2022-11-09T06:17:56.905Z,1.30
2022-11-09T06:20:25.106Z,1.10
2022-11-09T06:23:03.064Z,1.75
2022-11-09T06:25:32.205Z,0.98
2022-11-09T06:27:58.997Z,0.88
2022-11-09T06:30:25.893Z,1.20
2022-11-09T06:33:01.622Z,1.48
2022-11-09T06:35:29.419Z,1.15
2022-11-09T06:38:00.161Z,1.30
2022-11-09T06:40:27.584Z,1.33
2022-11-09T06:42:58.162Z,1.30
2022-11-09T06:45:25.774Z,1.70
2022-11-09T06:47:58.676Z,1.40
2022-11-09T06:50:27.068Z,1.20
2022-11-09T06:52:59.005Z,1.70
2022-11-09T06:55:27.518Z,1.70
2022-11-09T06:57:54.682Z,2.03
2022-11-09T07:00:22.042Z,2.25
2022-11-09T07:02:48.812Z,1.95
2022-11-09T07:05:15.623Z,2.25
2022-11-09T07:07:42.521Z,1.80
2022-11-09T07:10:09.669Z,2.20
2022-11-09T07:12:36.457Z,2.17
2022-11-09T07:15:04.352Z,2.33
2022-11-09T07:17:32.558Z,1.40
2022-11-09T07:19:59.426Z,10.20
2022-11-09T07:22:28.213Z,1.65
2022-11-09T07:24:55.865Z,2.63
2022-11-09T07:27:27.526Z,1.15
2022-11-09T07:29:55.057Z,1.08
2022-11-09T07:32:27.554Z,0.93
2022-11-09T07:35:08.661Z,1.40
2022-11-09T07:37:35.961Z,0.90
2022-11-09T07:40:02.741Z,1.00
2022-11-09T07:42:29.486Z,1.67
2022-11-09T07:44:56.319Z,1.60
2022-11-09T07:47:23.100Z,1.15
2022-11-09T07:49:49.838Z,1.85
2022-11-09T07:52:16.641Z,1.55
2022-11-09T07:54:45.181Z,1.73
2022-11-09T07:57:14.011Z,2.08
2022-11-09T07:59:40.750Z,1.60
2022-11-09T08:02:09.569Z,1.80
2022-11-09T08:04:36.901Z,1.60
2022-11-09T08:07:03.690Z,1.63
2022-11-09T08:09:30.442Z,2.50
2022-11-09T08:11:57.365Z,1.80
2022-11-09T08:14:24.130Z,1.88
2022-11-09T08:16:51.024Z,2.17
2022-11-09T08:19:17.915Z,2.30
2022-11-09T08:21:44.690Z,1.60
2022-11-09T08:24:11.369Z,2.58
2022-11-09T08:26:38.231Z,2.50
2022-11-09T08:29:05.101Z,1.90
2022-11-09T08:31:31.873Z,2.20
2022-11-09T08:33:58.587Z,2.50
2022-11-09T08:36:27.888Z,2.50
2022-11-09T08:38:54.754Z,2.20
2022-11-09T08:41:21.529Z,2.22
2022-11-09T08:43:48.271Z,2.13
2022-11-09T08:46:15.040Z,1.80
2022-11-09T08:48:41.791Z,2.10
2022-11-09T08:51:08.695Z,1.80
2022-11-09T08:53:35.452Z,1.63
2022-11-09T08:56:02.251Z,1.90
2022-11-09T08:58:30.231Z,1.60
2022-11-09T09:00:57.160Z,1.40
2022-11-09T09:03:23.977Z,1.50
2022-11-09T09:05:51.437Z,1.23
2022-11-09T09:08:21.969Z,1.45
2022-11-09T09:10:49.329Z,1.50
2022-11-09T09:13:16.153Z,1.30
2022-11-09T09:15:42.988Z,1.48
2022-11-09T09:18:09.661Z,1.77
2022-11-09T09:20:36.393Z,1.42
2022-11-09T09:23:03.167Z,1.50
2022-11-09T09:25:30.003Z,1.70
2022-11-09T09:27:57.105Z,1.45
2022-11-09T09:30:24.018Z,1.65
2022-11-09T09:32:50.841Z,1.50
2022-11-09T09:35:17.656Z,1.73
2022-11-09T09:37:44.669Z,1.55
2022-11-09T09:40:25.490Z,2.05
2022-11-09T09:42:54.485Z,2.13
2022-11-09T09:45:27.943Z,1.77
2022-11-09T09:48:03.367Z,1.92
2022-11-09T09:50:37.755Z,1.93
2022-11-09T09:53:41.193Z,2.00
2022-11-09T09:56:19.710Z,2.00
2022-11-09T09:58:52.602Z,1.92
2022-11-09T10:01:24.032Z,1.80
2022-11-09T10:03:51.375Z,1.58
2022-11-09T10:06:43.059Z,1.63
2022-11-09T10:09:33.575Z,1.90
2022-11-09T10:12:21.961Z,1.60
2022-11-09T10:15:09.254Z,1.35
2022-11-09T10:17:54.872Z,1.40
2022-11-09T10:21:09.426Z,1.20
2022-11-09T10:23:57.397Z,1.20
2022-11-09T10:26:39.974Z,1.40
2022-11-09T10:29:27.746Z,1.38
2022-11-09T10:31:58.659Z,1.42
2022-11-09T10:34:44.008Z,1.40
2022-11-09T10:37:39.103Z,1.40
2022-11-09T10:40:09.100Z,1.00
2022-11-09T10:42:59.888Z,1.20
2022-11-09T10:45:46.118Z,1.50
2022-11-09T10:48:39.838Z,1.30
2022-11-09T10:51:48.042Z,1.33
2022-11-09T10:54:37.733Z,1.42
2022-11-09T10:57:25.750Z,1.50
2022-11-09T11:00:17.142Z,1.60
2022-11-09T11:03:15.315Z,1.70
2022-11-09T11:06:14.428Z,1.50
2022-11-09T11:09:05.810Z,1.73
2022-11-09T11:12:15.981Z,1.35
2022-11-09T11:15:01.519Z,1.42
2022-11-09T11:17:47.000Z,1.40
2022-11-09T11:20:33.858Z,1.85
2022-11-09T11:23:22.532Z,1.60
2022-11-09T11:26:23.362Z,1.40
2022-11-09T11:29:20.552Z,1.23
2022-11-09T11:32:15.529Z,1.33
2022-11-09T11:35:01.816Z,1.20
2022-11-09T11:37:53.658Z,1.20
2022-11-09T11:40:50.491Z,1.15
2022-11-09T11:43:56.795Z,1.13
2022-11-09T11:46:46.609Z,1.10
2022-11-09T11:49:53.774Z,1.02
2022-11-09T11:52:41.628Z,1.20
2022-11-09T11:55:45.711Z,0.90
2022-11-09T11:58:49.388Z,1.13
2022-11-09T12:01:55.497Z,1.25
2022-11-09T12:05:09.216Z,1.00
2022-11-09T12:08:12.459Z,0.90
2022-11-09T12:11:26.812Z,0.98
2022-11-09T12:14:31.748Z,1.10
2022-11-09T12:17:44.666Z,1.13
2022-11-09T12:20:39.537Z,1.60
2022-11-09T12:23:25.210Z,1.20
2022-11-09T12:26:39.430Z,1.10
2022-11-09T12:30:00.184Z,2.08
2022-11-09T12:33:07.313Z,1.10
2022-11-09T12:36:06.508Z,1.00
2022-11-09T12:39:07.324Z,1.20
2022-11-09T12:41:56.537Z,1.17
2022-11-09T12:45:12.099Z,1.00
2022-11-09T12:47:59.425Z,1.33
2022-11-09T12:50:45.437Z,1.20
2022-11-09T12:53:35.261Z,1.20
2022-11-09T12:56:24.085Z,1.13
2022-11-09T12:59:33.089Z,0.80
2022-11-09T13:02:52.904Z,1.20
2022-11-09T13:05:39.701Z,1.40
2022-11-09T13:08:31.721Z,1.23
2022-11-09T13:11:21.956Z,1.50
2022-11-09T13:14:22.646Z,1.20
2022-11-09T13:17:26.391Z,1.23
2022-11-09T13:20:56.574Z,1.30
2022-11-09T13:26:48.282Z,1.30
2022-11-09T13:29:40.022Z,1.67
2022-11-09T13:32:31.675Z,0.85
2022-11-09T13:35:40.139Z,1.08
2022-11-09T13:38:32.842Z,1.20
2022-11-09T13:41:30.744Z,0.98
2022-11-09T13:44:22.951Z,1.30
2022-11-09T13:47:22.797Z,1.65
2022-11-09T13:50:19.665Z,1.40
2022-11-09T13:53:47.377Z,0.90
2022-11-09T13:56:40.048Z,1.27
2022-11-09T13:59:40.285Z,0.98
2022-11-09T14:02:26.704Z,1.10
2022-11-09T14:05:25.652Z,1.30
2022-11-09T14:08:24.628Z,1.63
2022-11-09T14:11:28.575Z,1.17
2022-11-09T14:14:37.770Z,1.40
2022-11-09T14:17:51.878Z,1.05
2022-11-09T14:20:43.113Z,1.17
2022-11-09T14:23:31.157Z,1.38
2022-11-09T14:26:19.749Z,0.98
2022-11-09T14:29:40.179Z,1.23
2022-11-09T14:32:35.637Z,1.10
2022-11-09T14:35:29.146Z,1.20
2022-11-09T14:38:21.673Z,2.20
2022-11-09T14:41:22.777Z,1.67
2022-11-09T14:44:17.488Z,1.40
2022-11-09T14:47:03.631Z,1.95
2022-11-09T14:49:49.798Z,1.37
2022-11-09T14:52:35.495Z,1.30
2022-11-09T14:55:23.262Z,1.45
2022-11-09T14:58:13.863Z,1.60
2022-11-09T15:01:19.928Z,1.30
2022-11-09T15:04:13.683Z,1.20
2022-11-09T15:07:04.216Z,1.77
2022-11-09T15:09:54.120Z,1.85
2022-11-09T15:12:45.351Z,1.45
2022-11-09T15:15:34.502Z,1.65
2022-11-09T15:18:28.943Z,1.38
2022-11-09T15:24:16.580Z,2.20
2022-11-09T15:27:02.118Z,1.80
2022-11-09T15:29:47.611Z,1.90
2022-11-09T15:32:37.756Z,2.63
2022-11-09T15:35:23.558Z,1.60
2022-11-09T15:38:30.474Z,1.30
2022-11-09T15:41:21.043Z,1.60
2022-11-09T15:44:06.855Z,1.48
2022-11-09T15:46:53.576Z,1.52
2022-11-09T15:49:39.144Z,1.77
2022-11-09T15:52:25.072Z,2.35
2022-11-09T15:55:18.269Z,3.15
2022-11-09T15:58:03.656Z,2.80
2022-11-09T16:00:48.925Z,2.75
2022-11-09T16:03:34.352Z,3.05
2022-11-09T16:06:22.293Z,3.30
2022-11-09T16:09:07.519Z,2.25
2022-11-09T16:11:52.980Z,2.83
2022-11-09T16:14:38.860Z,2.85
2022-11-09T16:17:24.175Z,2.60
2022-11-09T16:20:10.015Z,2.80
2022-11-09T16:22:55.586Z,3.00
2022-11-09T16:25:41.020Z,2.75
2022-11-09T16:28:26.380Z,2.80
2022-11-09T16:31:13.388Z,3.42
2022-11-09T16:33:58.775Z,3.35
2022-11-09T16:36:50.868Z,3.00
2022-11-09T16:39:39.552Z,3.05
2022-11-09T16:42:25.990Z,3.10
2022-11-09T16:45:14.324Z,2.38
2022-11-09T16:48:02.262Z,2.47
2022-11-09T16:50:48.665Z,2.85
2022-11-09T16:53:33.919Z,2.05
2022-11-09T16:56:19.330Z,2.80
2022-11-09T16:59:04.874Z,3.35
2022-11-09T17:01:55.336Z,3.67
2022-11-09T17:04:40.766Z,2.85
2022-11-09T17:07:26.939Z,3.55
2022-11-09T17:10:12.346Z,4.05
2022-11-09T17:12:57.910Z,3.15
2022-11-09T17:15:48.183Z,4.13
2022-11-09T17:18:33.633Z,4.30
2022-11-09T17:21:18.898Z,4.32
2022-11-09T17:24:06.341Z,4.47
2022-11-09T17:26:51.663Z,5.15
2022-11-09T17:29:39.594Z,4.90
2022-11-09T17:32:28.068Z,5.18
2022-11-09T17:35:13.181Z,4.75
2022-11-09T17:37:58.538Z,4.18
2022-11-09T17:40:43.955Z,5.38
2022-11-09T17:43:31.377Z,6.75
2022-11-09T17:46:21.617Z,6.90
2022-11-09T17:49:09.947Z,5.95
2022-11-09T17:51:56.395Z,5.82
2022-11-09T17:54:41.599Z,5.75
2022-11-09T17:57:26.886Z,4.90
2022-11-09T18:00:12.791Z,5.80
2022-11-09T18:02:58.304Z,5.35
2022-11-09T18:05:44.700Z,3.38
2022-11-09T18:08:30.530Z,2.00
2022-11-09T18:11:17.098Z,3.50
2022-11-09T18:14:03.363Z,1.17
2022-11-09T18:16:48.733Z,2.53
2022-11-09T18:19:34.185Z,2.58
2022-11-09T18:22:19.529Z,2.47
2022-11-09T18:25:05.319Z,2.08
2022-11-09T18:27:52.303Z,2.13
2022-11-09T18:30:41.535Z,2.42
2022-11-09T18:33:27.008Z,2.05
2022-11-09T18:36:15.808Z,2.10
2022-11-09T18:39:03.035Z,2.33
2022-11-09T18:41:55.751Z,2.33
2022-11-09T18:44:41.000Z,2.15
2022-11-09T18:47:26.817Z,2.13
2022-11-09T18:50:11.876Z,2.20
2022-11-09T18:52:57.392Z,1.95
2022-11-09T18:55:42.946Z,2.20
2022-11-09T18:58:29.129Z,2.33
2022-11-09T19:01:15.936Z,1.75
2022-11-09T19:04:01.816Z,1.95
2022-11-09T19:06:47.346Z,2.00
2022-11-09T19:09:35.737Z,1.85
2022-11-09T19:12:21.457Z,2.08
2022-11-09T19:15:07.670Z,2.05
2022-11-09T19:17:53.360Z,1.83
2022-11-09T19:20:39.101Z,2.72
2022-11-09T19:23:26.453Z,2.42
2022-11-09T19:26:14.819Z,2.22
2022-11-09T19:29:00.168Z,2.65
2022-11-09T19:31:46.166Z,2.33
2022-11-09T19:34:31.874Z,2.85
2022-11-09T19:37:17.229Z,2.78
2022-11-09T19:40:03.392Z,2.97
2022-11-09T19:42:48.785Z,3.67
2022-11-09T19:45:42.172Z,3.85
2022-11-09T19:48:28.444Z,3.55
2022-11-09T19:51:15.811Z,2.58
2022-11-09T19:54:02.658Z,3.63
2022-11-09T19:56:47.786Z,4.35
2022-11-09T19:59:33.306Z,3.88
2022-11-09T20:02:18.813Z,3.80
2022-11-09T20:05:04.784Z,3.25
2022-11-09T20:07:50.447Z,3.50
2022-11-09T20:10:38.763Z,4.28
2022-11-09T20:13:24.654Z,4.03
2022-11-09T20:16:10.709Z,3.70
2022-11-09T20:18:56.142Z,4.50
2022-11-09T20:21:42.148Z,4.35
2022-11-09T20:24:27.323Z,3.40
2022-11-09T20:27:12.590Z,2.80
2022-11-09T20:29:58.051Z,3.63
2022-11-09T20:32:43.577Z,3.13
2022-11-09T20:35:29.081Z,2.92
2022-11-09T20:38:14.400Z,2.95
2022-11-09T20:41:02.448Z,3.25
2022-11-09T20:43:47.971Z,3.28
2022-11-09T20:46:36.569Z,3.92
2022-11-09T20:49:22.957Z,2.97
2022-11-09T20:52:08.507Z,2.90
2022-11-09T20:54:53.812Z,3.72
2022-11-09T20:57:39.365Z,2.53
2022-11-09T21:00:24.912Z,2.65
2022-11-09T21:03:10.232Z,3.22
2022-11-09T21:06:00.042Z,3.03
2022-11-09T21:08:46.925Z,2.83
2022-11-09T21:14:20.356Z,3.15
2022-11-09T21:17:05.661Z,3.33
2022-11-09T21:19:51.433Z,2.53
2022-11-09T21:23:05.786Z,3.50
2022-11-09T21:26:09.660Z,3.20
2022-11-09T21:29:13.506Z,3.85
2022-11-09T21:31:59.631Z,3.97
2022-11-09T21:34:45.162Z,3.22
2022-11-09T21:37:30.653Z,2.47
2022-11-09T21:40:16.197Z,2.83
2022-11-09T21:43:01.687Z,3.60
2022-11-09T21:45:50.485Z,3.38
2022-11-09T21:48:35.947Z,3.50
2022-11-09T21:51:21.479Z,2.75
2022-11-09T21:54:08.585Z,2.60
